createdAt,value
2023-05-06T00:00:10.142Z,19.88
2023-05-06T00:02:37.533Z,24.63
2023-05-06T00:05:05.168Z,21.27
2023-05-06T00:07:32.693Z,19.42
2023-05-06T00:10:00.156Z,21.88
2023-05-06T00:12:27.564Z,21.25
2023-05-06T00:14:55.051Z,19.75
2023-05-06T00:17:22.558Z,22.38
2023-05-06T00:19:52.364Z,24.48
2023-05-06T00:22:19.786Z,27.00
2023-05-06T00:24:47.356Z,22.23
2023-05-06T00:27:14.775Z,23.77
2023-05-06T00:29:42.238Z,24.88
2023-05-06T00:32:09.666Z,22.25
2023-05-06T00:34:37.285Z,22.88
2023-05-06T00:37:04.720Z,21.33
2023-05-06T00:39:32.139Z,22.95
2023-05-06T00:42:03.457Z,25.02
2023-05-06T00:44:31.924Z,24.27
2023-05-06T00:47:00.784Z,24.08
2023-05-06T00:49:29.413Z,26.23
2023-05-06T00:51:57.321Z,24.30
2023-05-06T00:54:26.828Z,27.55
2023-05-06T00:56:54.530Z,25.33
2023-05-06T00:59:23.254Z,26.13
2023-05-06T01:01:52.228Z,27.88
2023-05-06T01:04:20.222Z,28.70
2023-05-06T01:06:53.523Z,29.63
2023-05-06T01:09:43.160Z,30.30
2023-05-06T01:12:21.914Z,29.45
2023-05-06T01:15:36.480Z,26.55
2023-05-06T01:18:10.872Z,29.73
2023-05-06T01:20:40.124Z,32.78
2023-05-06T01:23:12.037Z,32.63
2023-05-06T01:25:41.052Z,34.92
2023-05-06T01:28:11.473Z,32.10
2023-05-06T01:31:01.483Z,34.75
2023-05-06T01:33:47.647Z,36.25
2023-05-06T01:36:47.580Z,35.28
2023-05-06T01:39:25.969Z,41.05
2023-05-06T01:41:56.016Z,33.95
2023-05-06T01:44:23.619Z,37.83
2023-05-06T01:46:52.545Z,37.50
2023-05-06T01:49:20.935Z,38.00
2023-05-06T01:51:49.549Z,33.60
2023-05-06T01:54:17.179Z,37.13
2023-05-06T01:56:44.565Z,35.28
2023-05-06T01:59:12.231Z,36.17
2023-05-06T02:01:39.824Z,35.95
2023-05-06T02:04:07.508Z,34.67
2023-05-06T02:06:34.862Z,37.00
2023-05-06T02:09:02.287Z,33.47
2023-05-06T02:11:29.735Z,39.30
2023-05-06T02:13:58.277Z,36.25
2023-05-06T02:16:28.963Z,37.50
2023-05-06T02:18:56.737Z,36.20
2023-05-06T02:21:24.619Z,36.05
2023-05-06T02:23:52.284Z,39.70
2023-05-06T02:26:19.705Z,39.65
2023-05-06T02:28:47.127Z,36.33
2023-05-06T02:31:16.223Z,33.00
2023-05-06T02:33:45.215Z,37.97
2023-05-06T02:36:12.743Z,38.75
2023-05-06T02:38:40.160Z,37.97
2023-05-06T02:41:07.870Z,37.97
2023-05-06T02:43:35.360Z,38.25
2023-05-06T02:46:02.855Z,36.85
2023-05-06T02:48:30.331Z,39.88
2023-05-06T02:50:57.778Z,36.92
2023-05-06T02:53:25.129Z,38.05
2023-05-06T02:55:52.700Z,38.85
2023-05-06T02:58:20.392Z,35.90
2023-05-06T03:00:48.000Z,41.10
2023-05-06T03:03:15.787Z,37.92
2023-05-06T03:05:43.763Z,40.33
2023-05-06T03:08:11.252Z,40.30
2023-05-06T03:10:38.761Z,40.30
2023-05-06T03:13:06.355Z,39.95
2023-05-06T03:15:33.823Z,39.42
2023-05-06T03:18:01.298Z,37.63
2023-05-06T03:20:29.321Z,40.33
2023-05-06T03:22:56.833Z,44.42
2023-05-06T03:25:24.393Z,38.67
2023-05-06T03:27:51.803Z,40.83
2023-05-06T03:30:19.506Z,40.25
2023-05-06T03:32:49.354Z,45.53
2023-05-06T03:35:17.533Z,41.17
2023-05-06T03:37:44.892Z,43.08
2023-05-06T03:40:12.610Z,42.58
2023-05-06T03:42:40.280Z,41.55
2023-05-06T03:45:08.644Z,41.72
2023-05-06T03:47:36.561Z,38.83
2023-05-06T03:50:05.947Z,39.83
2023-05-06T03:52:33.311Z,37.83
2023-05-06T03:55:00.875Z,36.42
2023-05-06T03:57:28.270Z,41.03
2023-05-06T03:59:55.989Z,38.97
2023-05-06T04:02:23.672Z,43.05
2023-05-06T04:04:51.372Z,47.13
2023-05-06T04:07:18.905Z,41.13
2023-05-06T04:09:46.289Z,44.38
2023-05-06T04:12:16.813Z,40.85
2023-05-06T04:14:44.163Z,37.40
2023-05-06T04:17:11.588Z,42.42
2023-05-06T04:19:38.975Z,38.95
2023-05-06T04:22:06.432Z,39.42
2023-05-06T04:24:33.895Z,35.95
2023-05-06T04:27:02.842Z,41.75
2023-05-06T04:29:30.488Z,37.67
2023-05-06T04:31:58.418Z,42.75
2023-05-06T04:34:27.693Z,37.58
2023-05-06T04:36:55.394Z,37.75
2023-05-06T04:39:22.926Z,37.90
2023-05-06T04:41:50.714Z,38.47
2023-05-06T04:44:19.529Z,37.78
2023-05-06T04:46:47.237Z,37.50
2023-05-06T04:49:14.758Z,35.85
2023-05-06T04:51:42.132Z,37.80
2023-05-06T04:54:09.544Z,36.28
2023-05-06T04:56:36.937Z,35.50
2023-05-06T04:59:04.516Z,38.40
2023-05-06T05:01:31.899Z,31.00
2023-05-06T05:03:59.367Z,35.13
2023-05-06T05:06:26.758Z,36.55
2023-05-06T05:08:55.442Z,35.90
2023-05-06T05:11:23.033Z,36.35
2023-05-06T05:13:50.798Z,36.22
2023-05-06T05:16:18.388Z,34.00
2023-05-06T05:18:45.808Z,30.55
2023-05-06T05:21:13.304Z,31.70
2023-05-06T05:23:40.834Z,29.98
2023-05-06T05:26:08.283Z,32.95
2023-05-06T05:28:35.852Z,31.70
2023-05-06T05:31:05.067Z,33.85
2023-05-06T05:33:32.730Z,34.63
2023-05-06T05:36:00.336Z,40.85
2023-05-06T05:38:27.822Z,31.27
2023-05-06T05:40:56.676Z,31.52
2023-05-06T05:43:26.081Z,34.55
2023-05-06T05:45:53.598Z,32.95
2023-05-06T05:48:21.029Z,31.13
2023-05-06T05:50:48.437Z,34.95
2023-05-06T05:53:18.746Z,33.15
2023-05-06T05:55:46.116Z,30.48
2023-05-06T05:58:13.634Z,32.30
2023-05-06T06:00:41.013Z,31.55
2023-05-06T06:03:08.626Z,31.42
2023-05-06T06:05:39.178Z,33.17
2023-05-06T06:08:06.665Z,30.10
2023-05-06T06:10:34.150Z,29.05
2023-05-06T06:13:01.861Z,33.35
2023-05-06T06:15:29.478Z,31.77
2023-05-06T06:17:57.090Z,29.25
2023-05-06T06:20:24.652Z,30.60
2023-05-06T06:22:52.023Z,29.85
2023-05-06T06:25:20.088Z,29.75
2023-05-06T06:27:47.480Z,25.58
2023-05-06T06:30:14.928Z,27.10
2023-05-06T06:32:50.392Z,26.85
2023-05-06T06:35:19.437Z,29.17
2023-05-06T06:37:47.500Z,28.80
2023-05-06T06:40:15.196Z,32.05
2023-05-06T06:42:43.836Z,30.30
2023-05-06T06:45:12.257Z,25.38
2023-05-06T06:47:39.946Z,29.33
2023-05-06T06:50:08.557Z,26.20
2023-05-06T06:52:36.333Z,23.00
2023-05-06T06:55:04.148Z,22.65
2023-05-06T06:57:31.593Z,20.98
2023-05-06T06:59:58.941Z,19.73
2023-05-06T07:02:26.408Z,21.27
2023-05-06T07:04:54.481Z,20.90
2023-05-06T07:07:21.907Z,20.20
2023-05-06T07:13:05.433Z,20.55
2023-05-06T07:15:33.028Z,23.45
2023-05-06T07:18:00.536Z,20.48
2023-05-06T07:20:28.024Z,21.90
2023-05-06T07:22:55.419Z,22.80
2023-05-06T07:25:22.814Z,21.65
2023-05-06T07:27:50.544Z,24.00
2023-05-06T07:30:21.008Z,23.77
2023-05-06T07:32:50.652Z,20.00
2023-05-06T07:35:20.725Z,27.13
2023-05-06T07:37:48.214Z,21.60
2023-05-06T07:40:15.596Z,22.67
2023-05-06T07:42:43.372Z,20.75
2023-05-06T07:45:11.429Z,24.45
2023-05-06T07:47:39.232Z,23.50
2023-05-06T07:50:07.598Z,23.75
2023-05-06T07:52:35.150Z,23.45
2023-05-06T07:55:02.708Z,23.38
2023-05-06T07:57:30.048Z,24.48
2023-05-06T07:59:58.706Z,23.00
2023-05-06T08:02:27.229Z,25.48
2023-05-06T08:04:54.861Z,24.02
2023-05-06T08:07:22.307Z,23.45
2023-05-06T08:09:49.723Z,23.95
2023-05-06T08:12:17.623Z,24.05
2023-05-06T08:14:45.530Z,27.15
2023-05-06T08:17:14.050Z,25.58
2023-05-06T08:19:43.477Z,24.35
2023-05-06T08:22:11.006Z,24.02
2023-05-06T08:24:41.407Z,24.77
2023-05-06T08:27:08.878Z,23.05
2023-05-06T08:29:36.492Z,24.67
2023-05-06T08:32:04.931Z,22.73
2023-05-06T08:34:32.587Z,20.70
2023-05-06T08:37:00.261Z,22.95
2023-05-06T08:39:33.962Z,24.05
2023-05-06T08:42:02.970Z,20.65
2023-05-06T08:44:30.605Z,20.98
2023-05-06T08:46:58.509Z,24.83
2023-05-06T08:49:26.277Z,21.25
2023-05-06T08:51:57.957Z,25.38
2023-05-06T08:54:28.744Z,21.57
2023-05-06T08:56:57.906Z,23.27
2023-05-06T08:59:26.860Z,19.83
2023-05-06T09:01:54.319Z,21.17
2023-05-06T09:04:21.878Z,20.30
2023-05-06T09:06:49.401Z,18.23
2023-05-06T09:09:16.873Z,21.60
2023-05-06T09:11:44.485Z,20.17
2023-05-06T09:14:12.620Z,31.73
2023-05-06T09:16:48.189Z,19.55
2023-05-06T09:19:16.723Z,21.92
2023-05-06T09:21:46.062Z,36.65
2023-05-06T09:24:15.384Z,76.68
2023-05-06T09:26:44.772Z,38.05
2023-05-06T09:29:12.347Z,25.60
2023-05-06T09:31:44.727Z,23.75
2023-05-06T09:34:12.964Z,24.42
2023-05-06T09:36:40.524Z,20.83
2023-05-06T09:39:09.957Z,21.52
2023-05-06T09:41:37.586Z,18.13
2023-05-06T09:44:05.737Z,23.02
2023-05-06T09:46:33.450Z,20.95
2023-05-06T09:49:01.737Z,19.92
2023-05-06T09:51:29.766Z,15.95
2023-05-06T09:53:57.934Z,16.33
2023-05-06T09:56:31.213Z,16.10
2023-05-06T09:59:01.417Z,18.70
2023-05-06T10:01:36.774Z,17.05
2023-05-06T10:04:08.854Z,17.92
2023-05-06T10:06:39.457Z,18.75
2023-05-06T10:09:08.309Z,17.40
2023-05-06T10:11:36.402Z,14.27
2023-05-06T10:14:04.249Z,13.63
2023-05-06T10:16:32.036Z,14.40
2023-05-06T10:19:00.062Z,10.63
2023-05-06T10:21:29.455Z,12.40
2023-05-06T10:24:07.795Z,17.13
2023-05-06T10:26:38.242Z,13.20
2023-05-06T10:29:10.882Z,13.60
2023-05-06T10:34:26.391Z,15.55
2023-05-06T10:36:57.620Z,13.45
2023-05-06T10:39:25.980Z,16.67
2023-05-06T10:41:53.429Z,17.20
2023-05-06T10:44:59.507Z,12.65
2023-05-06T10:47:27.359Z,14.40
2023-05-06T10:50:23.357Z,12.35
2023-05-06T10:52:59.055Z,11.77
2023-05-06T10:55:29.481Z,10.40
2023-05-06T10:58:12.259Z,11.25
2023-05-06T11:03:13.221Z,10.52
2023-05-06T11:05:51.713Z,10.98
2023-05-06T11:08:26.664Z,10.10
2023-05-06T11:10:54.818Z,10.07
2023-05-06T11:13:27.828Z,8.63
2023-05-06T11:16:00.255Z,12.75
2023-05-06T11:18:31.911Z,9.90
2023-05-06T11:21:05.183Z,8.53
2023-05-06T11:23:52.114Z,10.48
2023-05-06T11:26:19.584Z,13.25
2023-05-06T11:28:50.202Z,10.32
2023-05-06T11:31:18.000Z,11.18
2023-05-06T11:33:48.707Z,12.02
2023-05-06T11:36:17.847Z,10.57
2023-05-06T11:38:50.040Z,13.88
2023-05-06T11:41:18.327Z,9.13
2023-05-06T11:43:50.234Z,11.20
2023-05-06T11:46:19.413Z,14.05
2023-05-06T11:48:47.288Z,13.18
2023-05-06T11:51:14.779Z,12.80
2023-05-06T11:53:42.279Z,14.38
2023-05-06T11:56:09.815Z,11.32
2023-05-06T11:58:37.312Z,12.93
2023-05-06T12:01:05.356Z,12.20
2023-05-06T12:03:33.743Z,9.90
2023-05-06T12:06:01.465Z,8.60
2023-05-06T12:08:33.863Z,10.52
2023-05-06T12:11:06.857Z,9.77
2023-05-06T12:13:36.869Z,10.65
2023-05-06T12:16:05.435Z,10.13
2023-05-06T12:18:33.253Z,11.68
2023-05-06T12:21:03.685Z,11.85
2023-05-06T12:23:31.395Z,9.48
2023-05-06T12:26:06.753Z,10.65
2023-05-06T12:28:35.984Z,8.95
2023-05-06T12:31:23.370Z,9.40
2023-05-06T12:33:51.176Z,8.45
2023-05-06T12:36:19.377Z,10.32
2023-05-06T12:38:57.653Z,7.15
2023-05-06T12:41:36.640Z,9.27
2023-05-06T12:44:04.808Z,9.50
2023-05-06T12:46:33.515Z,7.43
2023-05-06T12:49:02.244Z,8.65
2023-05-06T12:51:33.629Z,7.03
2023-05-06T12:54:01.007Z,17.40
2023-05-06T12:56:28.375Z,6.03
2023-05-06T12:58:59.490Z,6.78
2023-05-06T13:01:30.355Z,7.60
2023-05-06T13:04:02.731Z,8.77
2023-05-06T13:06:30.180Z,10.48
2023-05-06T13:08:57.625Z,6.57
2023-05-06T13:11:28.314Z,8.50
2023-05-06T13:13:55.856Z,5.70
2023-05-06T13:16:23.803Z,5.95
2023-05-06T13:18:51.289Z,7.57
2023-05-06T13:21:21.837Z,7.38
2023-05-06T13:23:49.414Z,6.38
2023-05-06T13:26:17.785Z,6.75
2023-05-06T13:28:45.478Z,7.85
2023-05-06T13:31:12.948Z,10.25
2023-05-06T13:33:40.577Z,6.88
2023-05-06T13:36:08.222Z,5.80
2023-05-06T13:38:36.048Z,7.32
2023-05-06T13:41:03.483Z,6.22
2023-05-06T13:43:31.952Z,6.25
2023-05-06T13:45:59.350Z,8.63
2023-05-06T13:48:29.998Z,5.72
2023-05-06T13:50:57.462Z,5.28
2023-05-06T13:53:27.547Z,6.43
2023-05-06T13:55:55.325Z,6.13
2023-05-06T13:58:22.764Z,7.07
2023-05-06T14:00:50.108Z,6.45
2023-05-06T14:03:18.565Z,5.97
2023-05-06T14:05:46.213Z,6.18
2023-05-06T14:08:13.939Z,4.13
2023-05-06T14:10:41.369Z,2.95
2023-05-06T14:13:09.039Z,7.80
2023-05-06T14:15:36.527Z,7.25
2023-05-06T14:18:04.695Z,5.93
2023-05-06T14:20:32.272Z,5.68
2023-05-06T14:22:59.663Z,5.88
2023-05-06T14:25:28.142Z,3.88
2023-05-06T14:27:55.967Z,6.90
2023-05-06T14:30:24.510Z,6.85
2023-05-06T14:32:51.989Z,4.95
2023-05-06T14:35:19.617Z,5.85
2023-05-06T14:37:47.094Z,4.70
2023-05-06T14:40:16.388Z,6.00
2023-05-06T14:42:44.289Z,6.10
2023-05-06T14:45:12.927Z,7.68
2023-05-06T14:47:41.598Z,5.32
2023-05-06T14:50:13.151Z,4.63
2023-05-06T14:52:41.794Z,5.82
2023-05-06T14:55:10.707Z,7.20
2023-05-06T14:57:38.964Z,5.93
2023-05-06T15:00:12.574Z,7.32
2023-05-06T15:02:41.225Z,5.22
2023-05-06T15:05:12.487Z,4.72
2023-05-06T15:07:40.164Z,6.90
2023-05-06T15:10:08.088Z,6.93
2023-05-06T15:12:37.307Z,6.97
2023-05-06T15:15:08.019Z,5.45
2023-05-06T15:17:35.711Z,6.35
2023-05-06T15:20:04.697Z,6.68
2023-05-06T15:22:32.133Z,7.18
2023-05-06T15:24:59.530Z,7.57
2023-05-06T15:27:27.108Z,7.28
2023-05-06T15:29:54.914Z,6.03
2023-05-06T15:32:22.485Z,7.53
2023-05-06T15:34:50.895Z,6.38
2023-05-06T15:37:19.425Z,7.47
2023-05-06T15:39:48.250Z,8.80
2023-05-06T15:42:16.930Z,6.68
2023-05-06T15:44:45.261Z,6.93
2023-05-06T15:47:13.099Z,9.40
2023-05-06T15:52:11.684Z,5.78
2023-05-06T15:54:40.907Z,7.13
2023-05-06T15:57:08.755Z,4.78
2023-05-06T15:59:38.696Z,7.00
2023-05-06T16:04:36.661Z,6.22
2023-05-06T16:07:04.832Z,6.25
2023-05-06T16:09:32.738Z,6.50
2023-05-06T16:12:00.229Z,5.90
2023-05-06T16:14:27.585Z,6.85
2023-05-06T16:16:55.161Z,11.75
2023-05-06T16:19:22.616Z,11.80
2023-05-06T16:21:50.026Z,9.13
2023-05-06T16:24:17.413Z,10.65
2023-05-06T16:26:44.837Z,10.30
2023-05-06T16:29:12.267Z,12.63
2023-05-06T16:31:39.915Z,15.02
2023-05-06T16:34:07.469Z,14.15
2023-05-06T16:36:35.236Z,13.18
2023-05-06T16:39:02.678Z,13.95
2023-05-06T16:41:30.060Z,13.85
2023-05-06T16:43:58.080Z,18.08
2023-05-06T16:49:07.577Z,12.82
2023-05-06T16:51:34.960Z,15.35
2023-05-06T16:58:53.146Z,13.88
2023-05-06T17:01:20.576Z,11.05
2023-05-06T17:03:51.093Z,14.13
2023-05-06T17:06:31.637Z,12.88
2023-05-06T17:15:42.448Z,12.48
2023-05-06T17:18:10.258Z,12.05
2023-05-06T17:20:47.924Z,11.10
2023-05-06T17:23:22.181Z,10.90
2023-05-06T17:27:35.138Z,12.98
2023-05-06T17:29:06.010Z,14.05
2023-05-06T17:31:36.168Z,15.63
2023-05-06T17:34:07.908Z,10.80
2023-05-06T17:37:44.386Z,11.15
2023-05-06T17:41:06.635Z,10.38
2023-05-06T17:43:41.355Z,12.88
2023-05-06T17:46:12.331Z,10.65
2023-05-06T17:48:39.784Z,10.70
2023-05-06T17:51:10.275Z,10.55
2023-05-06T17:53:38.673Z,9.48
2023-05-06T17:56:06.457Z,12.88
2023-05-06T17:58:33.870Z,12.48
2023-05-06T18:01:01.270Z,13.23
2023-05-06T18:03:28.717Z,16.25
2023-05-06T18:05:56.154Z,16.98
2023-05-06T18:08:23.543Z,13.05
2023-05-06T18:10:50.914Z,17.92
2023-05-06T18:13:18.406Z,21.70
2023-05-06T18:15:45.966Z,13.55
2023-05-06T18:18:13.448Z,15.40
2023-05-06T18:20:42.012Z,16.83
2023-05-06T18:23:09.573Z,15.15
2023-05-06T18:25:37.043Z,17.90
2023-05-06T18:28:05.457Z,18.17
2023-05-06T18:30:32.973Z,19.25
2023-05-06T18:33:00.422Z,21.35
2023-05-06T18:35:28.010Z,16.70
2023-05-06T18:37:55.423Z,17.55
2023-05-06T18:40:23.389Z,16.83
2023-05-06T18:42:50.877Z,17.33
2023-05-06T18:45:18.395Z,19.38
2023-05-06T18:47:45.929Z,17.13
2023-05-06T18:50:13.379Z,17.85
2023-05-06T18:52:40.748Z,15.70
2023-05-06T18:55:09.011Z,20.13
2023-05-06T18:57:37.184Z,18.48
2023-05-06T19:00:07.211Z,18.13
2023-05-06T19:02:34.779Z,24.95
2023-05-06T19:05:02.123Z,21.90
2023-05-06T19:07:29.498Z,20.88
2023-05-06T19:09:59.633Z,20.33
2023-05-06T19:12:27.037Z,17.98
2023-05-06T19:14:54.402Z,18.40
2023-05-06T19:17:21.988Z,17.80
2023-05-06T19:19:49.377Z,16.65
2023-05-06T19:22:17.360Z,16.88
2023-05-06T19:24:44.806Z,14.63
2023-05-06T19:27:12.272Z,14.88
2023-05-06T19:29:39.879Z,16.27
2023-05-06T19:32:07.372Z,14.25
2023-05-06T19:34:38.165Z,13.07
2023-05-06T19:37:05.768Z,17.83
2023-05-06T19:39:36.078Z,15.50
2023-05-06T19:42:03.440Z,17.15
2023-05-06T19:44:30.823Z,14.93
2023-05-06T19:46:58.157Z,16.73
2023-05-06T19:49:26.347Z,18.95
2023-05-06T19:51:53.714Z,13.95
2023-05-06T19:54:22.400Z,16.77
2023-05-06T19:56:49.896Z,14.00
2023-05-06T19:59:17.656Z,16.25
2023-05-06T20:01:44.974Z,17.90
2023-05-06T20:04:12.378Z,13.40
2023-05-06T20:06:39.715Z,12.85
2023-05-06T20:09:12.124Z,16.98
2023-05-06T20:11:40.045Z,16.17
2023-05-06T20:14:07.517Z,16.67
2023-05-06T20:19:02.427Z,17.23
2023-05-06T20:21:29.339Z,16.95
2023-05-06T20:23:56.434Z,18.83
2023-05-06T20:26:25.036Z,17.27
2023-05-06T20:28:53.212Z,13.70
2023-05-06T20:31:20.329Z,18.67
2023-05-06T20:33:50.949Z,23.10
2023-05-06T20:36:17.885Z,20.20
2023-05-06T20:38:53.341Z,16.67
2023-05-06T20:41:21.461Z,19.48
2023-05-06T20:43:48.464Z,16.17
2023-05-06T20:46:15.546Z,16.77
2023-05-06T20:48:42.612Z,21.25
2023-05-06T20:51:09.550Z,21.27
2023-05-06T20:53:37.197Z,20.10
2023-05-06T20:56:06.610Z,18.48
2023-05-06T20:59:03.568Z,21.20
2023-05-06T21:01:30.763Z,18.42
2023-05-06T21:03:59.172Z,20.75
2023-05-06T21:06:26.972Z,21.13
2023-05-06T21:08:53.918Z,22.00
2023-05-06T21:11:21.051Z,22.10
2023-05-06T21:13:50.061Z,22.25
2023-05-06T21:16:17.305Z,22.13
2023-05-06T21:18:44.388Z,24.52
2023-05-06T21:21:11.254Z,22.23
2023-05-06T21:23:38.223Z,25.50
2023-05-06T21:26:05.292Z,21.50
2023-05-06T21:28:32.263Z,26.50
2023-05-06T21:30:59.388Z,21.30
2023-05-06T21:33:26.278Z,21.60
2023-05-06T21:35:53.222Z,22.23
2023-05-06T21:38:20.348Z,24.10
2023-05-06T21:40:47.370Z,24.45
2023-05-06T21:43:17.745Z,23.25
2023-05-06T21:45:44.971Z,24.70
2023-05-06T21:48:12.093Z,19.05
2023-05-06T21:50:39.185Z,20.55
2023-05-06T21:53:06.582Z,22.15
2023-05-06T21:55:33.716Z,21.65
2023-05-06T21:58:00.766Z,20.27
2023-05-06T22:00:28.166Z,23.40
2023-05-06T22:02:55.505Z,23.63
2023-05-06T22:05:22.866Z,25.80
2023-05-06T22:07:50.356Z,24.42
2023-05-06T22:10:17.370Z,29.90
2023-05-06T22:12:44.395Z,29.13
2023-05-06T22:15:13.862Z,27.70
2023-05-06T22:17:41.020Z,32.60
2023-05-06T22:20:11.104Z,28.00
2023-05-06T22:22:38.533Z,27.30
2023-05-06T22:25:06.823Z,31.50
2023-05-06T22:27:33.909Z,30.33
2023-05-06T22:30:00.814Z,30.95
2023-05-06T22:32:27.993Z,34.63
2023-05-06T22:34:54.905Z,32.03
2023-05-06T22:37:21.860Z,36.63
2023-05-06T22:39:50.821Z,35.13
2023-05-06T22:42:17.805Z,35.13
2023-05-06T22:44:45.958Z,32.20
2023-05-06T22:47:12.959Z,33.90
2023-05-06T22:49:40.314Z,35.70
2023-05-06T22:52:07.283Z,36.42
2023-05-06T22:54:34.345Z,34.05
2023-05-06T22:57:01.287Z,31.13
2023-05-06T22:59:28.685Z,34.05
2023-05-06T23:01:56.066Z,35.22
2023-05-06T23:04:23.296Z,38.70
2023-05-06T23:06:50.237Z,34.58
2023-05-06T23:09:17.274Z,35.90
2023-05-06T23:11:45.346Z,36.33
2023-05-06T23:14:13.105Z,39.63
2023-05-06T23:16:40.152Z,43.42
2023-05-06T23:19:07.173Z,47.55
2023-05-06T23:21:34.133Z,44.45
2023-05-06T23:24:01.553Z,48.50
2023-05-06T23:26:28.705Z,50.30
2023-05-06T23:28:56.011Z,49.55
2023-05-06T23:31:23.319Z,47.92
2023-05-06T23:33:50.310Z,45.65
2023-05-06T23:36:17.824Z,50.40
2023-05-06T23:38:44.851Z,56.00
2023-05-06T23:41:12.598Z,47.42
2023-05-06T23:43:39.525Z,51.38
2023-05-06T23:46:06.482Z,45.78
2023-05-06T23:48:34.115Z,49.92
2023-05-06T23:51:01.128Z,48.63
2023-05-06T23:53:28.168Z,56.50
2023-05-06T23:55:55.903Z,50.92
2023-05-06T23:58:22.823Z,49.83
